Time;durP1;ratioP1;P1;durP2;ratioP2;P2;SDS_P1;SDS_P2;PMS_P1;PMS_P2;Temp;Humidity;BMP_temperature;BMP_pressure;BME280_temperature;BME280_humidity;BME280_pressure;Samples;Min_cycle;Max_cycle;Signal;HPM_P1;HPM_P2
2021/12/26 00:00:02;;;;;;;;;26.33;25.33;;;;;11.47;74.85;99949.59;4979357;28;45506;-69
2021/12/26 00:02:27;;;;;;;;;23.00;23.00;;;;;11.57;75.14;99961.72;4979870;28;45248;-68
2021/12/26 00:04:53;;;;;;;;;25.33;22.67;;;;;11.37;75.04;99917.84;4979392;28;46123;-68
2021/12/26 00:07:18;;;;;;;;;26.67;22.00;;;;;11.47;75.21;99925.66;4979807;28;45494;-66
2021/12/26 00:09:43;;;;;;;;;28.33;24.67;;;;;11.61;74.77;99948.88;4979563;28;45274;-66
2021/12/26 00:12:12;;;;;;;;;21.67;21.67;;;;;11.70;75.04;99961.19;4979601;28;45529;-69
2021/12/26 00:14:38;;;;;;;;;24.67;20.00;;;;;11.62;74.90;99942.59;4979458;28;46721;-69
2021/12/26 00:17:04;;;;;;;;;28.00;24.00;;;;;11.63;75.28;99946.09;4978052;28;45321;-67
2021/12/26 00:19:29;;;;;;;;;31.67;29.33;;;;;11.67;75.21;99944.75;4991879;28;45877;-69
2021/12/26 00:21:54;;;;;;;;;28.67;26.00;;;;;11.71;75.29;99946.06;4979564;28;45397;-68
2021/12/26 00:24:20;;;;;;;;;25.33;24.00;;;;;11.68;74.72;99928.59;4977836;28;48563;-68
2021/12/26 00:26:45;;;;;;;;;27.33;24.00;;;;;11.75;75.03;99934.06;4979160;28;45330;-70
2021/12/26 00:29:11;;;;;;;;;26.33;23.67;;;;;11.76;74.99;99939.19;4977981;28;45394;-67
2021/12/26 00:31:37;;;;;;;;;27.00;24.33;;;;;11.75;74.71;99934.06;4979002;28;45279;-67
2021/12/26 00:34:04;;;;;;;;;23.33;20.67;;;;;11.37;74.71;99864.59;4979028;28;46584;-68
2021/12/26 00:36:29;;;;;;;;;25.00;23.33;;;;;11.79;74.32;99936.22;4978505;28;45405;-67
2021/12/26 00:38:55;;;;;;;;;29.67;22.33;;;;;11.80;74.34;99921.06;4978931;28;45488;-68
2021/12/26 00:41:20;;;;;;;;;23.00;20.67;;;;;11.74;74.33;99909.25;4994584;28;45279;-68
2021/12/26 00:43:46;;;;;;;;;26.00;18.67;;;;;11.73;74.08;99912.09;4977442;28;47927;-67
2021/12/26 00:46:13;;;;;;;;;25.67;23.00;;;;;11.78;74.01;99925.72;4978514;28;45390;-67
2021/12/26 00:48:38;;;;;;;;;53.25;43.00;;;;;11.73;73.79;99920.91;4978919;28;45254;-66
2021/12/26 00:51:03;;;;;;;;;26.00;25.00;;;;;11.75;74.46;99910.09;4979038;28;45437;-70
2021/12/26 00:53:29;;;;;;;;;27.67;24.67;;;;;11.82;73.64;99916.44;4978538;28;45580;-70
2021/12/26 00:55:54;;;;;;;;;26.33;23.67;;;;;11.65;73.98;99904.97;4978840;28;45504;-68
2021/12/26 00:58:20;;;;;;;;;27.00;23.00;;;;;11.78;73.88;99937.22;4978858;28;45481;-69
2021/12/26 01:00:49;;;;;;;;;25.67;24.33;;;;;11.78;74.24;99939.03;4978763;28;45309;-69
2021/12/26 01:03:17;;;;;;;;;29.00;25.67;;;;;11.48;74.29;99887.38;4978875;28;46363;-68
2021/12/26 01:05:46;;;;;;;;;30.67;27.67;;;;;11.68;74.17;99920.59;4979721;28;45450;-68
2021/12/26 01:08:15;;;;;;;;;30.67;26.00;;;;;11.64;74.18;99916.63;4998122;28;46338;-68
2021/12/26 01:11:07;;;;;;;;;29.67;27.33;;;;;11.66;74.42;99933.25;4998464;28;45224;-69
2021/12/26 01:13:37;;;;;;;;;29.67;26.00;;;;;11.59;74.17;99922.44;4997950;28;46577;-68
2021/12/26 01:16:07;;;;;;;;;26.00;25.00;;;;;11.60;74.99;99939.25;4996650;28;45351;-69
2021/12/26 01:18:35;;;;;;;;;25.33;19.33;;;;;11.59;74.50;99938.41;4998148;28;45296;-67
2021/12/26 01:21:25;;;;;;;;;34.00;26.33;;;;;11.56;74.83;99937.94;4998039;28;45298;-68
2021/12/26 01:23:56;;;;;;;;;33.00;28.67;;;;;11.56;74.94;99943.25;4997715;28;46448;-67
2021/12/26 01:26:22;;;;;;;;;32.00;28.33;;;;;11.52;75.13;99936.63;4996412;28;46051;-67
2021/12/26 01:28:48;;;;;;;;;33.67;30.00;;;;;11.54;75.18;99931.94;4997897;28;45457;-68
2021/12/26 01:31:18;;;;;;;;;27.33;24.67;;;;;11.46;75.37;99922.16;4998064;28;45424;-68
2021/12/26 01:33:49;;;;;;;;;25.00;22.67;;;;;11.56;75.08;99928.09;4997673;28;46970;-68
2021/12/26 01:36:15;;;;;;;;;29.67;28.67;;;;;11.54;74.86;99929.28;4992009;28;45627;-69
2021/12/26 01:38:41;;;;;;;;;23.67;22.67;;;;;11.55;75.25;99933.59;4978002;28;45548;-68
2021/12/26 01:41:10;;;;;;;;;29.33;27.67;;;;;11.56;75.00;99932.59;4978298;28;45611;-68
2021/12/26 01:43:37;;;;;;;;;29.00;26.67;;;;;11.54;74.94;99931.94;4976829;28;45802;-68
2021/12/26 01:46:04;;;;;;;;;28.00;24.00;;;;;11.45;74.75;99909.84;4977602;28;45479;-68
2021/12/26 01:48:29;;;;;;;;;27.00;25.33;;;;;11.50;74.82;99907.50;4977852;28;45382;-67
2021/12/26 01:50:55;;;;;;;;;26.33;22.00;;;;;11.51;74.76;99911.81;4978157;28;45497;-68
2021/12/26 01:53:24;;;;;;;;;23.33;23.00;;;;;11.47;74.47;99899.03;4977661;28;45663;-69
2021/12/26 01:55:51;;;;;;;;;18.67;18.67;;;;;11.45;74.50;99909.03;4992761;28;45859;-69
2021/12/26 01:58:21;;;;;;;;;30.67;27.67;;;;;11.53;74.66;99933.78;4985737;28;45425;-68
2021/12/26 02:00:51;;;;;;;;;32.33;30.00;;;;;11.52;75.07;99921.47;4997437;28;45427;-69
2021/12/26 02:03:17;;;;;;;;;27.67;22.00;;;;;11.47;75.36;99923.81;4979547;28;47332;-69
2021/12/26 02:05:42;;;;;;;;;29.00;27.67;;;;;11.37;75.38;99907.19;4997082;28;45349;-69
2021/12/26 02:08:08;;;;;;;;;22.33;20.00;;;;;11.36;75.59;99920.66;4997302;28;45482;-68
2021/12/26 02:10:34;;;;;;;;;27.00;25.67;;;;;11.41;75.46;99929.81;4997532;28;45434;-69
2021/12/26 02:13:00;;;;;;;;;26.00;24.33;;;;;11.31;75.39;99921.19;4997256;28;45372;-69
2021/12/26 02:15:25;;;;;;;;;29.33;27.33;;;;;11.34;75.52;99922.66;4997091;28;45370;-68
2021/12/26 02:17:51;;;;;;;;;31.00;27.00;;;;;11.44;75.61;99931.31;4997140;28;45558;-69
2021/12/26 02:20:32;;;;;;;;;29.00;24.67;;;;;11.53;75.67;99938.28;4997389;28;45364;-68
2021/12/26 02:23:04;;;;;;;;;29.00;27.33;;;;;11.59;75.09;99938.41;4996877;28;45736;-68
2021/12/26 02:27:55;;;;;;;;;30.33;26.00;;;;;11.41;74.97;99897.88;4990724;28;45197;-69
2021/12/26 02:30:22;;;;;;;;;34.33;32.00;;;;;11.22;75.01;99867.16;4984714;28;45281;-69
2021/12/26 02:32:49;;;;;;;;;26.67;26.00;;;;;11.61;74.99;99929.41;4977419;28;46509;-68
2021/12/26 02:35:16;;;;;;;;;30.67;28.33;;;;;11.57;74.63;99927.09;4976985;28;45482;-69
2021/12/26 02:37:42;;;;;;;;;24.00;24.00;;;;;11.58;74.85;99927.94;4977274;28;45334;-67
2021/12/26 02:40:08;;;;;;;;;32.33;29.00;;;;;11.59;74.92;99926.94;4977378;28;45377;-68
2021/12/26 02:42:34;;;;;;;;;28.33;27.33;;;;;11.26;74.98;99875.63;4977055;28;46219;-68
2021/12/26 02:44:59;;;;;;;;;36.00;31.33;;;;;11.59;75.74;99926.94;4977042;28;45274;-68
2021/12/26 02:47:43;;;;;;;;;26.00;23.33;;;;;11.65;74.94;99914.78;4977024;28;45493;-68
2021/12/26 02:50:14;;;;;;;;;30.67;26.00;;;;;11.63;74.58;99917.63;4977365;28;45236;-68
2021/12/26 02:52:41;;;;;;;;;24.33;22.33;;;;;11.57;74.98;99902.31;4976865;28;46689;-67
2021/12/26 02:55:10;;;;;;;;;25.33;25.33;;;;;11.59;75.00;99903.81;4978972;28;45298;-69
2021/12/26 02:57:36;;;;;;;;;27.00;25.00;;;;;11.44;74.85;99881.56;4980680;28;45244;-68
2021/12/26 03:00:10;;;;;;;;;28.00;24.67;;;;;11.56;74.87;99909.47;4982797;28;45462;-68
2021/12/26 03:02:40;;;;;;;;;31.33;25.00;;;;;11.17;74.68;99853.50;4980363;28;46587;-68
2021/12/26 03:05:05;;;;;;;;;28.00;25.00;;;;;11.52;74.68;99904.66;4980221;28;45338;-69
2021/12/26 03:07:31;;;;;;;;;29.33;25.67;;;;;11.41;75.39;99889.03;4995563;28;45535;-69
2021/12/26 03:09:59;;;;;;;;;24.67;22.00;;;;;11.49;74.65;99907.69;4979121;28;45481;-68
2021/12/26 03:12:27;;;;;;;;;25.00;22.67;;;;;11.51;75.21;99908.34;4995186;28;46447;-68
2021/12/26 03:14:53;;;;;;;;;22.00;21.00;;;;;11.55;75.45;99914.97;4980083;28;45321;-68
2021/12/26 03:17:18;;;;;;;;;24.67;21.33;;;;;11.52;75.60;99910.00;4980372;28;45500;-69
2021/12/26 03:19:43;;;;;;;;;25.67;22.00;;;;;11.52;74.96;99920.63;4980196;28;45326;-67
2021/12/26 03:22:09;;;;;;;;;24.67;22.67;;;;;11.52;75.62;99913.47;4978611;28;48188;-69
2021/12/26 03:24:37;;;;;;;;;26.00;23.67;;;;;11.58;75.25;99914.63;4980199;28;45410;-67
2021/12/26 03:27:05;;;;;;;;;25.00;24.00;;;;;11.59;75.01;99909.13;4980081;28;45537;-67
2021/12/26 03:29:31;;;;;;;;;24.33;23.33;;;;;11.54;74.93;99897.34;4981214;28;45452;-67
2021/12/26 03:31:57;;;;;;;;;22.67;22.00;;;;;11.51;74.93;99905.66;4999633;28;46630;-68
2021/12/26 03:34:22;;;;;;;;;24.67;24.33;;;;;11.59;75.11;99917.13;4999722;28;45311;-69
2021/12/26 03:36:51;;;;;;;;;25.33;23.67;;;;;11.59;75.60;99910.97;4999652;28;45263;-69
2021/12/26 03:39:18;;;;;;;;;19.00;18.33;;;;;11.55;74.98;99902.50;4999691;28;45329;-67
2021/12/26 03:41:43;;;;;;;;;25.33;23.00;;;;;11.57;75.27;99902.31;4999348;28;45649;-68
2021/12/26 03:44:08;;;;;;;;;27.00;25.67;;;;;11.48;75.07;99896.19;4997730;28;45276;-68
2021/12/26 03:46:35;;;;;;;;;27.33;26.00;;;;;10.90;74.81;99792.75;4997938;28;45381;-67
2021/12/26 03:49:04;;;;;;;;;29.33;27.00;;;;;11.14;74.57;99829.91;4999769;28;45409;-68
2021/12/26 03:51:30;;;;;;;;;26.67;25.67;;;;;11.48;74.72;99882.06;4999029;28;47320;-68
2021/12/26 03:53:55;;;;;;;;;27.67;24.00;;;;;11.51;74.86;99900.34;4999330;28;45850;-68
2021/12/26 03:56:21;;;;;;;;;25.67;22.00;;;;;11.53;75.02;99903.66;4999534;28;45457;-68
2021/12/26 03:58:46;;;;;;;;;29.67;24.67;;;;;11.56;74.07;99904.16;4998104;28;45672;-68
2021/12/26 04:01:12;;;;;;;;;27.67;24.00;;;;;11.53;75.28;99901.00;4981376;28;45337;-68
2021/12/26 04:03:37;;;;;;;;;26.67;25.00;;;;;11.56;74.89;99900.66;4979709;28;45340;-68
2021/12/26 04:06:03;;;;;;;;;35.33;31.00;;;;;11.48;74.51;99898.84;4978762;28;45568;-69
2021/12/26 04:08:28;;;;;;;;;23.33;21.33;;;;;11.51;74.72;99898.50;4979698;28;45358;-68
2021/12/26 04:10:54;;;;;;;;;31.67;26.67;;;;;11.45;75.23;99880.56;4979343;28;46080;-69
2021/12/26 04:13:19;;;;;;;;;29.67;26.67;;;;;11.44;75.38;99870.94;4979303;28;45225;-68
2021/12/26 04:15:45;;;;;;;;;30.00;27.00;;;;;11.41;74.76;99857.09;4979565;28;45566;-69
2021/12/26 04:18:11;;;;;;;;;27.67;24.67;;;;;11.45;74.86;99861.13;4979677;28;45271;-69
2021/12/26 04:20:36;;;;;;;;;26.67;25.67;;;;;11.57;74.84;99881.03;4979244;28;46104;-68
2021/12/26 04:23:02;;;;;;;;;25.00;24.67;;;;;11.54;74.47;99882.19;4979680;28;45179;-69
2021/12/26 04:25:28;;;;;;;;;9.00;9.00;;;;;11.52;74.66;99878.06;4979197;28;45329;-69
2021/12/26 04:27:54;;;;;;;;;30.33;27.00;;;;;11.48;74.85;99890.03;4979470;28;45243;-67
2021/12/26 04:30:21;;;;;;;;;26.00;26.00;;;;;11.10;75.08;99822.44;4977657;28;46275;-69
2021/12/26 04:32:46;;;;;;;;;33.67;28.33;;;;;11.37;74.98;99866.44;4979117;28;45348;-67
2021/12/26 04:35:13;;;;;;;;;35.00;29.00;;;;;11.04;75.12;99816.00;4979383;28;45355;-68
2021/12/26 04:37:38;;;;;;;;;31.67;28.00;;;;;11.48;74.97;99879.41;4979403;28;45348;-69
2021/12/26 04:40:07;;;;;;;;;27.67;22.67;;;;;11.40;74.81;99868.75;4978734;28;46353;-69
2021/12/26 04:42:33;;;;;;;;;31.00;25.00;;;;;11.42;75.42;99878.25;4979058;28;45246;-70
2021/12/26 04:44:58;;;;;;;;;28.67;27.33;;;;;11.42;75.49;99875.59;4994072;28;45495;-69
2021/12/26 04:47:24;;;;;;;;;29.67;28.00;;;;;11.47;75.54;99875.06;4979209;28;45406;-68
2021/12/26 04:49:49;;;;;;;;;29.67;28.33;;;;;11.40;74.91;99860.78;4978784;28;45877;-69
2021/12/26 04:52:15;;;;;;;;;28.00;26.00;;;;;11.47;75.49;99865.25;4979115;28;45369;-70
2021/12/26 04:54:41;;;;;;;;;34.00;26.67;;;;;11.43;75.34;99868.44;4978993;28;45375;-67
2021/12/26 04:57:06;;;;;;;;;27.33;24.67;;;;;11.38;75.18;99854.78;4979145;28;45294;-67
2021/12/26 04:59:32;;;;;;;;;30.67;28.67;;;;;11.36;74.96;99843.50;4977179;28;47655;-68
2021/12/26 05:01:57;;;;;;;;;24.00;24.00;;;;;11.43;75.71;99855.97;4977157;28;45529;-68
2021/12/26 05:04:23;;;;;;;;;28.00;26.67;;;;;11.46;75.83;99857.44;4978950;28;45475;-69
2021/12/26 05:06:48;;;;;;;;;24.67;24.33;;;;;11.49;75.48;99862.44;4978861;28;45227;-69
2021/12/26 05:09:14;;;;;;;;;32.33;28.00;;;;;11.44;76.03;99848.81;4978340;28;45787;-69
2021/12/26 05:11:40;;;;;;;;;28.00;25.67;;;;;11.40;75.65;99837.66;4978731;28;45279;-69
2021/12/26 05:14:05;;;;;;;;;33.00;29.33;;;;;11.51;75.57;99857.75;4978664;28;45464;-68
2021/12/26 05:16:31;;;;;;;;;30.67;27.67;;;;;11.43;75.84;99847.97;4978658;28;45460;-68
2021/12/26 05:18:57;;;;;;;;;26.00;23.00;;;;;11.37;75.99;99851.31;4978200;28;45264;-69
2021/12/26 05:21:22;;;;;;;;;26.33;22.67;;;;;11.42;76.06;99850.81;4993631;28;45387;-67
2021/12/26 05:23:47;;;;;;;;;23.00;21.00;;;;;11.40;75.70;99853.63;4992760;28;45572;-68
2021/12/26 05:26:13;;;;;;;;;28.00;23.33;;;;;11.40;76.16;99839.47;4998241;28;45456;-68
2021/12/26 05:28:38;;;;;;;;;26.67;26.33;;;;;11.38;75.86;99841.50;4997939;28;46787;-67
2021/12/26 05:31:04;;;;;;;;;24.33;22.67;;;;;11.44;76.21;99849.63;4998005;28;45309;-68
2021/12/26 05:33:29;;;;;;;;;28.33;27.67;;;;;11.42;76.09;99856.13;4998065;28;45558;-68
2021/12/26 05:35:55;;;;;;;;;33.67;28.00;;;;;11.44;76.31;99846.16;4998114;28;45355;-67
2021/12/26 05:38:20;;;;;;;;;28.67;23.00;;;;;11.36;75.71;99824.88;4996396;28;47587;-69
2021/12/26 05:40:45;;;;;;;;;24.00;21.67;;;;;11.46;75.96;99836.16;4997599;28;45487;-68
2021/12/26 05:43:11;;;;;;;;;24.67;24.33;;;;;11.49;75.86;99839.28;4997955;28;45295;-68
2021/12/26 05:45:38;;;;;;;;;33.33;28.33;;;;;11.46;75.77;99836.97;4997934;28;45444;-67
2021/12/26 05:48:03;;;;;;;;;30.00;27.67;;;;;11.51;75.74;99841.78;4997154;28;46987;-68
2021/12/26 05:50:29;;;;;;;;;28.33;27.00;;;;;11.47;75.60;99835.97;4997577;28;45416;-68
2021/12/26 05:52:54;;;;;;;;;32.33;29.67;;;;;11.37;75.47;99824.69;4987788;28;45415;-69
2021/12/26 05:55:20;;;;;;;;;25.67;25.00;;;;;11.46;75.61;99830.84;4978161;28;45225;-68
2021/12/26 05:57:45;;;;;;;;;24.67;23.00;;;;;11.57;75.49;99849.06;4977923;28;45511;-68
2021/12/26 06:00:14;;;;;;;;;25.33;25.33;;;;;11.57;75.37;99849.06;4977553;28;45514;-67
2021/12/26 06:02:39;;;;;;;;;27.33;25.67;;;;;11.55;75.39;99845.75;4977800;28;45526;-67
2021/12/26 06:05:05;;;;;;;;;23.00;20.33;;;;;11.53;75.76;99850.44;4977926;28;45444;-67
2021/12/26 06:07:31;;;;;;;;;26.67;24.00;;;;;11.55;75.30;99854.56;4977575;28;46847;-67
2021/12/26 06:09:56;;;;;;;;;22.00;20.33;;;;;11.52;75.25;99846.09;4976128;28;45387;-66
2021/12/26 06:12:21;;;;;;;;;23.00;21.67;;;;;11.46;75.29;99836.16;4977230;28;45488;-66
2021/12/26 06:14:48;;;;;;;;;23.67;22.00;;;;;11.44;75.79;99844.31;4977540;28;45404;-67
2021/12/26 06:17:14;;;;;;;;;22.33;18.00;;;;;11.35;75.42;99824.03;4977154;28;46529;-67
2021/12/26 06:19:39;;;;;;;;;22.33;22.33;;;;;11.49;75.68;99846.44;4976118;28;46219;-67
2021/12/26 06:22:06;;;;;;;;;24.67;22.33;;;;;11.39;75.75;99829.84;4977485;28;45494;-68
2021/12/26 06:24:31;;;;;;;;;24.33;23.33;;;;;11.20;75.37;99791.97;4977641;28;45412;-67
2021/12/26 06:26:57;;;;;;;;;24.00;23.67;;;;;11.17;75.46;99797.66;4985549;28;46724;-68
2021/12/26 06:29:22;;;;;;;;;25.00;22.00;;;;;11.10;75.55;99772.75;4994568;28;45239;-67
2021/12/26 06:31:48;;;;;;;;;25.67;23.67;;;;;11.30;75.09;99790.97;4997018;28;45499;-68
2021/12/26 06:34:14;;;;;;;;;26.00;22.00;;;;;11.66;75.00;99853.38;4996921;28;45342;-67
2021/12/26 06:36:39;;;;;;;;;23.00;20.33;;;;;11.61;75.28;99839.72;4996825;28;46197;-68
2021/12/26 06:39:05;;;;;;;;;21.00;19.33;;;;;11.66;75.43;99837.41;4995130;28;46405;-67
2021/12/26 06:41:31;;;;;;;;;20.67;19.00;;;;;11.73;75.03;99849.00;4996656;28;45465;-68
2021/12/26 06:43:57;;;;;;;;;22.00;19.33;;;;;11.65;74.98;99824.28;4995704;28;45592;-67
2021/12/26 06:46:22;;;;;;;;;18.33;16.00;;;;;11.73;75.16;99843.69;4996467;28;46171;-66
2021/12/26 06:48:48;;;;;;;;;20.67;19.00;;;;;11.43;75.38;99793.91;4996759;28;45251;-67
2021/12/26 06:51:14;;;;;;;;;22.33;19.00;;;;;11.59;75.24;99817.78;4996832;28;45481;-69
2021/12/26 06:53:39;;;;;;;;;22.00;19.33;;;;;11.66;75.10;99832.09;4996862;28;45535;-68
2021/12/26 06:56:05;;;;;;;;;21.00;19.00;;;;;11.71;74.93;99835.03;4995698;28;45589;-68
2021/12/26 06:58:33;;;;;;;;;22.00;22.00;;;;;11.55;75.30;99825.28;4995376;28;45456;-67
2021/12/26 07:00:59;;;;;;;;;23.00;20.00;;;;;11.57;75.66;99843.75;4995012;28;45484;-67
2021/12/26 07:03:25;;;;;;;;;17.67;15.00;;;;;11.67;75.64;99839.06;4995052;28;45334;-68
2021/12/26 07:05:50;;;;;;;;;20.67;19.67;;;;;11.69;75.45;99842.38;4996458;28;46562;-69
2021/12/26 07:08:15;;;;;;;;;17.00;15.67;;;;;11.62;75.00;99830.78;4996616;28;45332;-68
2021/12/26 07:10:41;;;;;;;;;20.33;19.00;;;;;11.68;75.55;99829.25;4996452;28;45290;-66
2021/12/26 07:13:06;;;;;;;;;22.00;19.33;;;;;11.41;74.98;99779.94;4996733;28;45438;-66
2021/12/26 07:15:32;;;;;;;;;17.00;17.00;;;;;11.74;75.26;99839.19;4996467;28;46172;-67
2021/12/26 07:17:57;;;;;;;;;16.67;15.67;;;;;11.41;75.68;99790.56;4996365;28;45468;-67
2021/12/26 07:20:24;;;;;;;;;21.67;18.67;;;;;11.66;75.79;99829.41;4996530;28;45238;-67
2021/12/26 07:22:55;;;;;;;;;19.67;19.33;;;;;11.56;75.70;99812.81;4995267;28;45524;-67
2021/12/26 07:25:20;;;;;;;;;19.00;17.67;;;;;11.64;75.38;99828.75;4996229;28;45470;-68
2021/12/26 07:27:45;;;;;;;;;23.00;21.00;;;;;11.65;75.69;99835.75;4994270;28;45402;-66
2021/12/26 07:30:11;;;;;;;;;21.33;20.67;;;;;11.78;76.05;99857.34;4996459;28;45355;-67
2021/12/26 07:32:37;;;;;;;;;23.00;20.67;;;;;11.74;75.93;99850.66;4996448;28;45484;-67
2021/12/26 07:35:03;;;;;;;;;27.00;23.67;;;;;11.69;76.26;99845.03;4996173;28;45712;-67
2021/12/26 07:37:29;;;;;;;;;25.33;19.00;;;;;11.56;76.09;99834.09;4996083;28;45571;-67
2021/12/26 07:39:54;;;;;;;;;23.67;20.00;;;;;11.73;76.53;99859.66;4994919;28;45247;-67
2021/12/26 07:42:20;;;;;;;;;24.67;21.00;;;;;11.31;76.15;99790.78;4998353;28;45373;-67
2021/12/26 07:44:46;;;;;;;;;21.67;20.67;;;;;11.69;76.60;99858.34;4999125;28;46540;-68
2021/12/26 07:47:11;;;;;;;;;22.33;20.33;;;;;11.70;76.55;99846.69;4999239;28;45396;-67
2021/12/26 07:49:37;;;;;;;;;19.00;18.00;;;;;11.67;76.59;99839.06;4989885;28;45508;-67
2021/12/26 07:52:10;;;;;;;;;20.00;18.67;;;;;11.64;76.83;99833.25;4995099;28;45436;-67
2021/12/26 07:54:35;;;;;;;;;19.33;16.33;;;;;11.70;76.55;99846.69;4978220;28;45918;-66
2021/12/26 07:57:01;;;;;;;;;17.00;16.00;;;;;11.73;76.69;99854.34;4979312;28;45200;-67
2021/12/26 07:59:27;;;;;;;;;19.00;15.67;;;;;11.68;76.57;99842.56;4979749;28;46366;-66
2021/12/26 08:01:52;;;;;;;;;21.00;19.33;;;;;11.50;76.74;99821.50;4979773;28;45280;-67
2021/12/26 08:04:18;;;;;;;;;20.00;16.67;;;;;11.65;76.95;99857.03;4979248;28;47636;-67
2021/12/26 08:06:43;;;;;;;;;21.00;17.33;;;;;11.75;77.03;99864.81;4979484;28;45384;-67
2021/12/26 08:09:09;;;;;;;;;16.67;16.33;;;;;11.80;76.72;99870.47;4994737;28;45393;-67
2021/12/26 08:11:34;;;;;;;;;20.00;19.00;;;;;11.63;76.39;99827.09;4979447;28;45639;-68
2021/12/26 08:14:01;;;;;;;;;20.33;20.00;;;;;11.70;76.90;99844.03;4994429;28;47228;-67
2021/12/26 08:16:27;;;;;;;;;20.67;19.33;;;;;11.90;76.76;99870.28;4985150;28;45525;-67
2021/12/26 08:18:53;;;;;;;;;23.33;23.00;;;;;11.92;76.13;99869.09;4981838;28;45421;-68
2021/12/26 08:21:19;;;;;;;;;25.67;22.00;;;;;11.96;75.82;99872.25;4979593;28;45184;-66
2021/12/26 08:23:44;;;;;;;;;21.67;21.67;;;;;11.94;76.55;99864.44;4979100;28;45482;-66
2021/12/26 08:26:10;;;;;;;;;23.33;23.00;;;;;11.89;76.51;99866.78;4979060;28;45574;-67
2021/12/26 08:28:35;;;;;;;;;26.67;22.00;;;;;11.88;76.80;99868.63;4979233;28;45376;-67
2021/12/26 08:31:01;;;;;;;;;24.33;21.00;;;;;11.83;76.52;99855.00;4979710;28;45232;-69
2021/12/26 08:33:26;;;;;;;;;27.67;23.67;;;;;11.87;76.74;99856.31;4979180;28;46370;-66
2021/12/26 08:35:52;;;;;;;;;21.67;18.33;;;;;11.97;76.37;99873.91;4979003;28;45573;-66
2021/12/26 08:38:21;;;;;;;;;26.00;21.33;;;;;11.67;76.58;99830.25;4979392;28;45218;-67
2021/12/26 08:40:55;;;;;;;;;26.00;21.00;;;;;11.85;76.72;99852.16;4979107;28;45321;-66
2021/12/26 08:43:21;;;;;;;;;25.33;21.00;;;;;11.95;77.14;99871.41;4978614;28;45477;-67
2021/12/26 08:45:48;;;;;;;;;21.67;20.00;;;;;11.97;76.96;99882.72;4978422;28;45489;-67
2021/12/26 08:48:14;;;;;;;;;8.33;8.00;;;;;11.88;76.66;99857.97;4997197;28;45285;-68
2021/12/26 08:50:40;;;;;;;;;19.00;19.00;;;;;12.03;76.32;99887.38;5013798;28;45526;-68
2021/12/26 08:53:06;;;;;;;;;18.67;17.00;;;;;12.06;76.46;99894.19;4996514;28;47797;-67
2021/12/26 08:55:32;;;;;;;;;20.00;19.00;;;;;11.80;75.64;99839.34;4998471;28;45298;-67
2021/12/26 08:57:59;;;;;;;;;20.67;20.33;;;;;12.07;75.80;99887.84;4998462;28;45290;-66
2021/12/26 09:00:24;;;;;;;;;19.00;17.33;;;;;12.05;76.10;99884.53;4998353;28;45452;-68
2021/12/26 09:02:51;;;;;;;;;17.67;16.33;;;;;12.16;75.80;99894.78;4997957;28;46426;-68
2021/12/26 09:05:17;;;;;;;;;23.00;21.67;;;;;12.12;75.71;99882.81;4998470;28;45435;-67
2021/12/26 09:07:45;;;;;;;;;19.33;18.33;;;;;12.21;75.48;99897.75;4996963;28;45398;-68
2021/12/26 09:10:12;;;;;;;;;21.33;19.00;;;;;12.26;75.74;99898.06;4998410;28;45460;-67
2021/12/26 09:12:39;;;;;;;;;19.33;18.33;;;;;12.25;75.78;99896.41;4997886;28;45492;-67
2021/12/26 09:15:08;;;;;;;;;18.67;16.67;;;;;12.20;75.55;99890.75;4997868;28;45535;-68
2021/12/26 09:17:35;;;;;;;;;18.00;16.67;;;;;12.33;75.33;99915.00;4982308;28;45485;-67
2021/12/26 09:20:02;;;;;;;;;22.00;19.00;;;;;12.31;75.21;99911.69;4978441;28;45230;-67
2021/12/26 09:22:27;;;;;;;;;17.67;17.67;;;;;12.35;75.78;99912.16;4978108;28;46706;-67
2021/12/26 09:24:53;;;;;;;;;18.67;16.00;;;;;12.25;75.36;99892.91;4978195;28;45176;-67
2021/12/26 09:27:19;;;;;;;;;19.67;18.00;;;;;12.25;75.17;99896.41;4977086;28;45437;-68
2021/12/26 09:29:45;;;;;;;;;18.33;17.33;;;;;12.32;75.18;99902.69;4978553;28;45372;-69
2021/12/26 09:32:10;;;;;;;;;25.33;24.33;;;;;12.37;75.39;99910.97;4978001;28;45456;-67
2021/12/26 09:34:36;;;;;;;;;19.33;18.67;;;;;12.01;75.06;99851.22;4978185;28;45320;-66
2021/12/26 09:37:05;;;;;;;;;19.67;17.67;;;;;12.07;75.05;99854.03;4976790;28;45406;-67
2021/12/26 09:39:31;;;;;;;;;18.33;18.33;;;;;12.47;75.30;99910.78;4978082;28;45159;-67
2021/12/26 09:41:57;;;;;;;;;19.00;19.00;;;;;12.55;75.06;99920.53;4977915;28;46365;-67
2021/12/26 09:44:23;;;;;;;;;19.33;17.00;;;;;12.52;74.97;99918.22;4977723;28;45269;-67
2021/12/26 09:46:49;;;;;;;;;19.67;18.33;;;;;12.55;75.12;99924.03;4978248;28;45499;-66
2021/12/26 09:49:15;;;;;;;;;16.33;15.67;;;;;12.57;74.78;99923.84;4978294;28;45455;-69
2021/12/26 09:51:41;;;;;;;;;21.33;17.67;;;;;12.54;75.07;99908.22;4977914;28;45504;-67
2021/12/26 09:54:09;;;;;;;;;19.33;18.33;;;;;12.68;74.38;99921.63;4976455;28;45624;-67
2021/12/26 09:56:35;;;;;;;;;23.00;17.33;;;;;12.62;74.29;99908.19;4993136;28;45641;-68
2021/12/26 09:59:04;;;;;;;;;21.00;20.00;;;;;12.64;74.41;99916.81;4977702;28;45258;-67
2021/12/26 10:01:32;;;;;;;;;16.00;14.33;;;;;12.61;73.94;99919.81;4975877;28;46681;-68
2021/12/26 10:04:00;;;;;;;;;15.33;15.33;;;;;12.47;74.91;99900.09;4976463;28;45470;-67
2021/12/26 10:06:31;;;;;;;;;18.33;17.67;;;;;12.62;74.53;99924.19;4992686;28;45590;-66
2021/12/26 10:09:09;;;;;;;;;16.67;16.00;;;;;12.57;74.64;99915.84;4977814;28;45262;-68
2021/12/26 10:11:40;;;;;;;;;15.33;15.33;;;;;12.63;74.52;99929.34;4977499;28;45415;-67
2021/12/26 10:14:29;;;;;;;;;16.33;14.00;;;;;12.55;74.73;99917.88;4977253;28;45595;-67
2021/12/26 10:17:15;;;;;;;;;17.33;14.00;;;;;12.68;74.49;99926.97;4992169;28;45354;-66
2021/12/26 10:19:46;;;;;;;;;20.00;17.00;;;;;12.69;74.71;99919.78;4977433;28;45495;-68
2021/12/26 10:22:17;;;;;;;;;19.33;15.67;;;;;12.70;74.62;99905.44;4977260;28;47372;-67
2021/12/26 10:24:49;;;;;;;;;15.00;12.67;;;;;12.58;74.62;99885.53;4977502;28;45477;-66
2021/12/26 10:27:20;;;;;;;;;11.00;11.00;;;;;12.75;74.37;99903.88;4977493;28;45474;-67
2021/12/26 10:29:47;;;;;;;;;20.67;16.67;;;;;12.62;74.99;99882.34;4976292;28;45437;-67
2021/12/26 10:32:20;;;;;;;;;14.00;14.00;;;;;12.73;74.95;99891.75;4977160;28;46553;-67
2021/12/26 10:34:59;;;;;;;;;19.00;18.00;;;;;12.75;74.54;99901.22;4977044;28;45321;-68
2021/12/26 10:37:32;;;;;;;;;19.00;17.33;;;;;12.79;74.58;99904.34;4992424;28;45260;-68
2021/12/26 10:40:00;;;;;;;;;14.33;13.67;;;;;12.84;74.33;99901.19;4977415;28;45337;-67
2021/12/26 10:42:36;;;;;;;;;14.00;14.00;;;;;12.76;74.73;99894.06;4976855;28;46034;-67
2021/12/26 10:45:06;;;;;;;;;9.33;9.33;;;;;12.76;74.92;99894.06;4977052;28;45286;-67
2021/12/26 10:47:35;;;;;;;;;23.33;18.33;;;;;12.70;75.16;99892.09;4991538;28;45288;-67
2021/12/26 10:50:11;;;;;;;;;19.33;15.67;;;;;12.54;75.13;99866.38;4977239;28;45547;-67
2021/12/26 10:52:48;;;;;;;;;18.33;18.33;;;;;12.60;75.59;99878.16;4976814;28;45964;-67
2021/12/26 10:55:19;;;;;;;;;18.00;17.33;;;;;12.63;75.92;99881.34;4976912;28;45503;-67
2021/12/26 10:57:47;;;;;;;;;22.33;18.00;;;;;12.62;76.05;99887.69;4976984;28;45495;-68
2021/12/26 11:00:19;;;;;;;;;19.67;17.00;;;;;12.63;76.43;99886.66;4991934;28;45261;-67
2021/12/26 11:02:49;;;;;;;;;14.67;14.67;;;;;12.59;76.79;99877.34;4976829;28;45645;-67
2021/12/26 11:05:18;;;;;;;;;18.67;17.67;;;;;12.45;76.59;99852.31;4991804;28;45342;-68
2021/12/26 11:07:51;;;;;;;;;17.67;16.33;;;;;12.52;76.49;99859.56;4976784;28;45622;-68
2021/12/26 11:10:18;;;;;;;;;21.00;20.00;;;;;12.65;76.43;99881.16;4976899;28;45258;-72
2021/12/26 11:12:49;;;;;;;;;19.33;17.33;;;;;12.60;76.76;99878.16;4976651;28;45675;-68
2021/12/26 11:15:16;;;;;;;;;14.67;13.67;;;;;12.55;76.93;99880.53;4977129;28;45461;-67
2021/12/26 11:17:50;;;;;;;;;14.33;14.33;;;;;12.49;77.13;99880.25;4998380;28;45614;-67